sensor_id;sensor_type;location;lat;lon;timestamp;pressure;altitude;pressure_sealevel;temperature;humidity
33185;BME280;19550;42.872;25.494;2022-11-20T00:01:04;95822.69;;;14.29;100.00
33185;BME280;19550;42.872;25.494;2022-11-20T00:03:31;95833.91;;;14.17;100.00
33185;BME280;19550;42.872;25.494;2022-11-20T00:06:01;95831.09;;;14.61;100.00
33185;BME280;19550;42.872;25.494;2022-11-20T00:08:27;95831.56;;;15.14;100.00
33185;BME280;19550;42.872;25.494;2022-11-20T00:10:54;95832.31;;;15.84;100.00
33185;BME280;19550;42.872;25.494;2022-11-20T00:13:21;95828.47;;;16.11;100.00
33185;BME280;19550;42.872;25.494;2022-11-20T00:15:48;95830.91;;;16.36;100.00
33185;BME280;19550;42.872;25.494;2022-11-20T00:18:15;95827.88;;;16.44;100.00
33185;BME280;19550;42.872;25.494;2022-11-20T00:20:42;95823.91;;;16.45;100.00
33185;BME280;19550;42.872;25.494;2022-11-20T00:23:10;95840.22;;;16.62;100.00
33185;BME280;19550;42.872;25.494;2022-11-20T00:25:37;95839.16;;;16.71;100.00
33185;BME280;19550;42.872;25.494;2022-11-20T00:28:03;95836.84;;;16.76;100.00
33185;BME280;19550;42.872;25.494;2022-11-20T00:30:30;95846.63;;;16.86;100.00
33185;BME280;19550;42.872;25.494;2022-11-20T00:32:57;95837.53;;;16.92;100.00
33185;BME280;19550;42.872;25.494;2022-11-20T00:35:24;95832.06;;;16.99;100.00
33185;BME280;19550;42.872;25.494;2022-11-20T00:37:51;95831.09;;;17.15;100.00
33185;BME280;19550;42.872;25.494;2022-11-20T00:40:19;95825.63;;;17.25;100.00
33185;BME280;19550;42.872;25.494;2022-11-20T00:42:46;95826.38;;;17.22;100.00
33185;BME280;19550;42.872;25.494;2022-11-20T00:45:13;95834.78;;;17.22;100.00
33185;BME280;19550;42.872;25.494;2022-11-20T00:47:39;95836.38;;;17.20;100.00
33185;BME280;19550;42.872;25.494;2022-11-20T00:50:07;95843.19;;;17.22;100.00
33185;BME280;19550;42.872;25.494;2022-11-20T00:52:34;95827.78;;;17.35;100.00
33185;BME280;19550;42.872;25.494;2022-11-20T00:55:01;95829.25;;;17.26;100.00
33185;BME280;19550;42.872;25.494;2022-11-20T00:57:29;95824.09;;;17.28;100.00
33185;BME280;19550;42.872;25.494;2022-11-20T00:59:56;95834.53;;;17.31;100.00
33185;BME280;19550;42.872;25.494;2022-11-20T01:02:22;95816.16;;;17.33;100.00
33185;BME280;19550;42.872;25.494;2022-11-20T01:04:49;95817.78;;;17.34;100.00
33185;BME280;19550;42.872;25.494;2022-11-20T01:07:16;95815.28;;;17.29;100.00
33185;BME280;19550;42.872;25.494;2022-11-20T01:09:43;95815.34;;;17.33;100.00
33185;BME280;19550;42.872;25.494;2022-11-20T01:12:09;95824.13;;;17.31;100.00
33185;BME280;19550;42.872;25.494;2022-11-20T01:14:38;95837.22;;;16.97;100.00
33185;BME280;19550;42.872;25.494;2022-11-20T01:17:05;95836.47;;;16.78;100.00
33185;BME280;19550;42.872;25.494;2022-11-20T01:19:32;95831.81;;;16.62;100.00
33185;BME280;19550;42.872;25.494;2022-11-20T01:21:58;95832.47;;;16.33;100.00
33185;BME280;19550;42.872;25.494;2022-11-20T01:24:25;95821.75;;;16.35;100.00
33185;BME280;19550;42.872;25.494;2022-11-20T01:26:52;95828.00;;;16.28;100.00
33185;BME280;19550;42.872;25.494;2022-11-20T01:29:21;95808.78;;;16.50;100.00
33185;BME280;19550;42.872;25.494;2022-11-20T01:31:50;95808.25;;;16.63;100.00
33185;BME280;19550;42.872;25.494;2022-11-20T01:34:19;95791.63;;;16.51;100.00
33185;BME280;19550;42.872;25.494;2022-11-20T01:36:46;95776.28;;;16.64;100.00
33185;BME280;19550;42.872;25.494;2022-11-20T01:39:15;95753.91;;;16.64;100.00
33185;BME280;19550;42.872;25.494;2022-11-20T01:41:42;95758.06;;;16.74;100.00
33185;BME280;19550;42.872;25.494;2022-11-20T01:44:48;95752.06;;;16.76;100.00
33185;BME280;19550;42.872;25.494;2022-11-20T01:47:21;95759.78;;;16.82;100.00
33185;BME280;19550;42.872;25.494;2022-11-20T01:49:53;95774.16;;;16.81;100.00
33185;BME280;19550;42.872;25.494;2022-11-20T01:52:23;95779.38;;;16.59;100.00
33185;BME280;19550;42.872;25.494;2022-11-20T01:54:54;95770.88;;;16.29;100.00
33185;BME280;19550;42.872;25.494;2022-11-20T01:57:24;95765.16;;;16.00;100.00
33185;BME280;19550;42.872;25.494;2022-11-20T01:59:57;95758.91;;;15.87;100.00
33185;BME280;19550;42.872;25.494;2022-11-20T02:02:28;95766.00;;;15.81;100.00
33185;BME280;19550;42.872;25.494;2022-11-20T02:04:56;95769.59;;;15.81;100.00
33185;BME280;19550;42.872;25.494;2022-11-20T02:07:27;95768.97;;;15.69;100.00
33185;BME280;19550;42.872;25.494;2022-11-20T02:09:54;95772.78;;;15.61;100.00
33185;BME280;19550;42.872;25.494;2022-11-20T02:12:21;95773.31;;;15.50;100.00
33185;BME280;19550;42.872;25.494;2022-11-20T02:15:06;95765.56;;;15.60;100.00
33185;BME280;19550;42.872;25.494;2022-11-20T02:17:34;95790.63;;;15.56;100.00
33185;BME280;19550;42.872;25.494;2022-11-20T02:20:01;95794.63;;;15.55;100.00
33185;BME280;19550;42.872;25.494;2022-11-20T02:22:33;95798.69;;;15.42;100.00
33185;BME280;19550;42.872;25.494;2022-11-20T02:25:05;95786.16;;;15.36;100.00
33185;BME280;19550;42.872;25.494;2022-11-20T02:27:34;95811.31;;;15.36;100.00
33185;BME280;19550;42.872;25.494;2022-11-20T02:30:02;95798.53;;;15.35;100.00
33185;BME280;19550;42.872;25.494;2022-11-20T02:32:31;95788.13;;;15.16;100.00
33185;BME280;19550;42.872;25.494;2022-11-20T02:35:05;95804.81;;;15.13;100.00
33185;BME280;19550;42.872;25.494;2022-11-20T02:37:34;95788.53;;;15.15;100.00
33185;BME280;19550;42.872;25.494;2022-11-20T02:40:06;95787.56;;;15.07;100.00
33185;BME280;19550;42.872;25.494;2022-11-20T02:42:33;95794.44;;;14.94;100.00
33185;BME280;19550;42.872;25.494;2022-11-20T02:45:00;95772.75;;;14.87;100.00
33185;BME280;19550;42.872;25.494;2022-11-20T02:47:26;95773.75;;;14.79;100.00
33185;BME280;19550;42.872;25.494;2022-11-20T02:49:53;95753.25;;;14.71;100.00
33185;BME280;19550;42.872;25.494;2022-11-20T02:52:20;95761.28;;;14.57;100.00
33185;BME280;19550;42.872;25.494;2022-11-20T02:54:47;95756.84;;;14.56;100.00
33185;BME280;19550;42.872;25.494;2022-11-20T02:57:15;95756.69;;;14.49;100.00
33185;BME280;19550;42.872;25.494;2022-11-20T02:59:42;95751.91;;;14.50;100.00
33185;BME280;19550;42.872;25.494;2022-11-20T03:02:09;95745.88;;;14.63;100.00
33185;BME280;19550;42.872;25.494;2022-11-20T03:04:35;95752.94;;;14.92;100.00
33185;BME280;19550;42.872;25.494;2022-11-20T03:07:02;95746.19;;;15.51;100.00
33185;BME280;19550;42.872;25.494;2022-11-20T03:09:29;95765.00;;;15.93;100.00
33185;BME280;19550;42.872;25.494;2022-11-20T03:11:56;95770.78;;;16.03;100.00
33185;BME280;19550;42.872;25.494;2022-11-20T03:14:24;95759.47;;;16.15;100.00
33185;BME280;19550;42.872;25.494;2022-11-20T03:16:51;95743.97;;;16.21;100.00
33185;BME280;19550;42.872;25.494;2022-11-20T03:19:18;95742.00;;;16.22;100.00
33185;BME280;19550;42.872;25.494;2022-11-20T03:21:45;95740.53;;;16.32;100.00
33185;BME280;19550;42.872;25.494;2022-11-20T03:24:13;95743.78;;;16.34;100.00
33185;BME280;19550;42.872;25.494;2022-11-20T03:26:40;95738.06;;;16.26;100.00
33185;BME280;19550;42.872;25.494;2022-11-20T03:29:07;95746.94;;;16.32;100.00
33185;BME280;19550;42.872;25.494;2022-11-20T03:31:37;95738.75;;;16.20;100.00
33185;BME280;19550;42.872;25.494;2022-11-20T03:34:06;95751.28;;;16.29;100.00
33185;BME280;19550;42.872;25.494;2022-11-20T03:36:33;95751.59;;;16.24;100.00
33185;BME280;19550;42.872;25.494;2022-11-20T03:39:00;95756.31;;;15.98;100.00
33185;BME280;19550;42.872;25.494;2022-11-20T03:41:28;95754.00;;;15.80;100.00
33185;BME280;19550;42.872;25.494;2022-11-20T03:43:58;95759.06;;;15.94;100.00
33185;BME280;19550;42.872;25.494;2022-11-20T03:46:26;95746.81;;;16.02;100.00
33185;BME280;19550;42.872;25.494;2022-11-20T03:48:54;95758.69;;;16.18;100.00
33185;BME280;19550;42.872;25.494;2022-11-20T03:51:23;95754.22;;;16.14;100.00
33185;BME280;19550;42.872;25.494;2022-11-20T03:53:51;95766.50;;;16.09;100.00
33185;BME280;19550;42.872;25.494;2022-11-20T03:56:22;95767.09;;;16.18;100.00
33185;BME280;19550;42.872;25.494;2022-11-20T03:58:49;95782.75;;;16.23;100.00
33185;BME280;19550;42.872;25.494;2022-11-20T04:01:18;95791.53;;;16.21;100.00
33185;BME280;19550;42.872;25.494;2022-11-20T04:03:45;95781.50;;;16.20;100.00
33185;BME280;19550;42.872;25.494;2022-11-20T04:06:16;95788.16;;;16.12;100.00
33185;BME280;19550;42.872;25.494;2022-11-20T04:08:44;95785.03;;;16.17;100.00
33185;BME280;19550;42.872;25.494;2022-11-20T04:11:12;95788.66;;;16.41;100.00
33185;BME280;19550;42.872;25.494;2022-11-20T04:13:39;95790.28;;;16.42;100.00
33185;BME280;19550;42.872;25.494;2022-11-20T04:16:07;95788.47;;;16.53;100.00
33185;BME280;19550;42.872;25.494;2022-11-20T04:18:35;95789.44;;;16.60;100.00
33185;BME280;19550;42.872;25.494;2022-11-20T04:21:03;95786.34;;;16.69;100.00
33185;BME280;19550;42.872;25.494;2022-11-20T04:23:33;95798.06;;;16.75;100.00
33185;BME280;19550;42.872;25.494;2022-11-20T04:26:01;95795.63;;;16.73;100.00
33185;BME280;19550;42.872;25.494;2022-11-20T04:28:28;95807.56;;;16.70;100.00
33185;BME280;19550;42.872;25.494;2022-11-20T04:31:01;95799.97;;;16.71;100.00
33185;BME280;19550;42.872;25.494;2022-11-20T04:33:28;95798.88;;;16.75;100.00
33185;BME280;19550;42.872;25.494;2022-11-20T04:35:55;95797.25;;;16.74;100.00
33185;BME280;19550;42.872;25.494;2022-11-20T04:38:26;95807.56;;;16.70;100.00
33185;BME280;19550;42.872;25.494;2022-11-20T04:40:57;95804.47;;;16.75;100.00
33185;BME280;19550;42.872;25.494;2022-11-20T04:43:24;95812.75;;;16.68;100.00
33185;BME280;19550;42.872;25.494;2022-11-20T04:45:51;95806.13;;;16.57;100.00
33185;BME280;19550;42.872;25.494;2022-11-20T04:48:18;95815.25;;;16.31;100.00
33185;BME280;19550;42.872;25.494;2022-11-20T04:50:45;95831.25;;;16.11;100.00
33185;BME280;19550;42.872;25.494;2022-11-20T04:53:12;95821.41;;;15.98;100.00
33185;BME280;19550;42.872;25.494;2022-11-20T04:55:39;95814.16;;;15.94;100.00
33185;BME280;19550;42.872;25.494;2022-11-20T04:58:08;95811.00;;;15.95;100.00
33185;BME280;19550;42.872;25.494;2022-11-20T05:00:35;95801.72;;;15.91;100.00
33185;BME280;19550;42.872;25.494;2022-11-20T05:03:02;95782.56;;;16.12;100.00
33185;BME280;19550;42.872;25.494;2022-11-20T05:05:28;95795.53;;;16.24;100.00
33185;BME280;19550;42.872;25.494;2022-11-20T05:07:56;95798.09;;;16.55;100.00
33185;BME280;19550;42.872;25.494;2022-11-20T05:10:23;95798.91;;;16.56;100.00
33185;BME280;19550;42.872;25.494;2022-11-20T05:12:50;95784.75;;;16.68;100.00
33185;BME280;19550;42.872;25.494;2022-11-20T05:15:18;95770.22;;;16.85;100.00
33185;BME280;19550;42.872;25.494;2022-11-20T05:17:47;95763.72;;;17.04;100.00
33185;BME280;19550;42.872;25.494;2022-11-20T05:20:14;95760.63;;;17.13;100.00
33185;BME280;19550;42.872;25.494;2022-11-20T05:22:41;95766.00;;;17.25;100.00
33185;BME280;19550;42.872;25.494;2022-11-20T05:25:08;95761.56;;;17.20;100.00
33185;BME280;19550;42.872;25.494;2022-11-20T05:27:35;95775.97;;;17.22;100.00
33185;BME280;19550;42.872;25.494;2022-11-20T05:30:02;95768.66;;;17.14;100.00
33185;BME280;19550;42.872;25.494;2022-11-20T05:32:31;95778.63;;;17.12;100.00
33185;BME280;19550;42.872;25.494;2022-11-20T05:34:57;95784.22;;;17.12;100.00
33185;BME280;19550;42.872;25.494;2022-11-20T05:37:24;95774.69;;;17.16;100.00
33185;BME280;19550;42.872;25.494;2022-11-20T05:39:51;95775.50;;;17.17;100.00
33185;BME280;19550;42.872;25.494;2022-11-20T05:42:18;95769.78;;;17.09;100.00
33185;BME280;19550;42.872;25.494;2022-11-20T05:44:56;95778.97;;;17.06;100.00
33185;BME280;19550;42.872;25.494;2022-11-20T05:47:23;95774.38;;;17.21;100.00
33185;BME280;19550;42.872;25.494;2022-11-20T05:49:51;95785.25;;;17.26;100.00
33185;BME280;19550;42.872;25.494;2022-11-20T05:52:18;95794.03;;;17.25;100.00
33185;BME280;19550;42.872;25.494;2022-11-20T05:54:45;95783.16;;;17.20;100.00
33185;BME280;19550;42.872;25.494;2022-11-20T05:57:12;95798.34;;;17.19;100.00
33185;BME280;19550;42.872;25.494;2022-11-20T05:59:39;95803.94;;;17.19;100.00
33185;BME280;19550;42.872;25.494;2022-11-20T06:02:06;95804.88;;;17.30;100.00
33185;BME280;19550;42.872;25.494;2022-11-20T06:04:32;95813.72;;;17.32;100.00
33185;BME280;19550;42.872;25.494;2022-11-20T06:07:01;95815.44;;;17.40;99.72
33185;BME280;19550;42.872;25.494;2022-11-20T06:09:27;95815.38;;;17.36;99.96
33185;BME280;19550;42.872;25.494;2022-11-20T06:11:54;95815.00;;;17.38;99.91
33185;BME280;19550;42.872;25.494;2022-11-20T06:14:21;95805.63;;;17.53;98.96
33185;BME280;19550;42.872;25.494;2022-11-20T06:16:48;95798.50;;;17.59;98.78
33185;BME280;19550;42.872;25.494;2022-11-20T06:19:15;95805.72;;;17.60;98.93
33185;BME280;19550;42.872;25.494;2022-11-20T06:21:42;95821.06;;;17.70;98.24
33185;BME280;19550;42.872;25.494;2022-11-20T06:24:10;95803.50;;;17.73;98.10
33185;BME280;19550;42.872;25.494;2022-11-20T06:26:37;95813.66;;;17.84;97.12
33185;BME280;19550;42.872;25.494;2022-11-20T06:29:04;95814.19;;;17.94;96.88
33185;BME280;19550;42.872;25.494;2022-11-20T06:31:31;95812.66;;;18.03;96.70
33185;BME280;19550;42.872;25.494;2022-11-20T06:34:00;95804.41;;;18.14;95.64
33185;BME280;19550;42.872;25.494;2022-11-20T06:36:27;95809.28;;;18.20;95.30
33185;BME280;19550;42.872;25.494;2022-11-20T06:38:54;95821.69;;;18.19;95.27
33185;BME280;19550;42.872;25.494;2022-11-20T06:41:22;95824.56;;;18.26;94.80
33185;BME280;19550;42.872;25.494;2022-11-20T06:43:49;95825.84;;;18.33;94.72
33185;BME280;19550;42.872;25.494;2022-11-20T06:46:17;95827.94;;;18.43;94.38
33185;BME280;19550;42.872;25.494;2022-11-20T06:48:45;95836.44;;;18.50;94.29
33185;BME280;19550;42.872;25.494;2022-11-20T06:51:12;95842.09;;;18.53;93.80
33185;BME280;19550;42.872;25.494;2022-11-20T06:53:39;95848.19;;;18.59;93.33
33185;BME280;19550;42.872;25.494;2022-11-20T06:56:06;95855.88;;;18.65;93.21
33185;BME280;19550;42.872;25.494;2022-11-20T06:58:35;95859.84;;;18.61;93.24
33185;BME280;19550;42.872;25.494;2022-11-20T07:01:04;95867.63;;;18.78;92.88
33185;BME280;19550;42.872;25.494;2022-11-20T07:03:31;95875.81;;;18.94;93.09
33185;BME280;19550;42.872;25.494;2022-11-20T07:05:58;95876.28;;;19.03;92.20
33185;BME280;19550;42.872;25.494;2022-11-20T07:08:26;95886.75;;;19.06;91.19
33185;BME280;19550;42.872;25.494;2022-11-20T07:10:58;95888.63;;;18.95;91.56
33185;BME280;19550;42.872;25.494;2022-11-20T07:13:26;95885.72;;;18.84;92.39
33185;BME280;19550;42.872;25.494;2022-11-20T07:15:55;95885.22;;;18.72;92.96
33185;BME280;19550;42.872;25.494;2022-11-20T07:18:25;95884.75;;;18.66;92.56
33185;BME280;19550;42.872;25.494;2022-11-20T07:20:52;95879.97;;;18.70;92.81
33185;BME280;19550;42.872;25.494;2022-11-20T07:23:19;95884.38;;;18.68;93.15
33185;BME280;19550;42.872;25.494;2022-11-20T07:25:45;95887.91;;;18.61;93.10
33185;BME280;19550;42.872;25.494;2022-11-20T07:28:12;95891.75;;;18.49;93.65
33185;BME280;19550;42.872;25.494;2022-11-20T07:30:39;95883.75;;;18.48;93.47
33185;BME280;19550;42.872;25.494;2022-11-20T07:33:07;95902.16;;;18.49;93.56
33185;BME280;19550;42.872;25.494;2022-11-20T07:35:34;95881.53;;;18.31;94.17
33185;BME280;19550;42.872;25.494;2022-11-20T07:38:01;95890.47;;;18.40;94.45
33185;BME280;19550;42.872;25.494;2022-11-20T07:40:28;95874.03;;;18.42;94.03
33185;BME280;19550;42.872;25.494;2022-11-20T07:42:55;95874.47;;;18.44;94.67
33185;BME280;19550;42.872;25.494;2022-11-20T07:45:23;95874.97;;;18.53;94.45
33185;BME280;19550;42.872;25.494;2022-11-20T07:47:50;95862.25;;;18.62;94.09
33185;BME280;19550;42.872;25.494;2022-11-20T07:50:19;95874.50;;;18.84;93.03
33185;BME280;19550;42.872;25.494;2022-11-20T07:52:46;95862.09;;;18.89;92.37
33185;BME280;19550;42.872;25.494;2022-11-20T07:55:14;95872.72;;;19.10;91.82
33185;BME280;19550;42.872;25.494;2022-11-20T07:57:41;95873.59;;;19.17;91.02
33185;BME280;19550;42.872;25.494;2022-11-20T08:00:10;95882.13;;;19.31;91.10
33185;BME280;19550;42.872;25.494;2022-11-20T08:02:37;95890.22;;;19.40;90.13
33185;BME280;19550;42.872;25.494;2022-11-20T08:05:05;95884.00;;;19.64;89.55
33185;BME280;19550;42.872;25.494;2022-11-20T08:07:36;95896.97;;;19.83;87.67
33185;BME280;19550;42.872;25.494;2022-11-20T08:10:04;95881.78;;;20.02;87.72
33185;BME280;19550;42.872;25.494;2022-11-20T08:12:32;95889.56;;;20.26;86.33
33185;BME280;19550;42.872;25.494;2022-11-20T08:15:16;95888.41;;;20.38;85.64
33185;BME280;19550;42.872;25.494;2022-11-20T08:17:43;95885.53;;;20.31;85.74
33185;BME280;19550;42.872;25.494;2022-11-20T08:20:10;95874.16;;;19.99;86.56
33185;BME280;19550;42.872;25.494;2022-11-20T08:22:38;95869.75;;;20.05;86.77
33185;BME280;19550;42.872;25.494;2022-11-20T08:25:06;95907.59;;;20.18;86.13
33185;BME280;19550;42.872;25.494;2022-11-20T08:27:33;95893.06;;;20.05;85.87
33185;BME280;19550;42.872;25.494;2022-11-20T08:29:59;95889.03;;;20.03;86.44
33185;BME280;19550;42.872;25.494;2022-11-20T08:32:26;95892.16;;;19.83;87.39
33185;BME280;19550;42.872;25.494;2022-11-20T08:34:53;95882.94;;;19.90;88.73
33185;BME280;19550;42.872;25.494;2022-11-20T08:37:20;95889.00;;;19.96;87.94
33185;BME280;19550;42.872;25.494;2022-11-20T08:39:48;95886.59;;;20.01;88.65
33185;BME280;19550;42.872;25.494;2022-11-20T08:42:15;95877.03;;;20.13;87.82
33185;BME280;19550;42.872;25.494;2022-11-20T08:44:42;95884.25;;;20.07;87.09
33185;BME280;19550;42.872;25.494;2022-11-20T08:47:09;95877.38;;;20.04;86.06
33185;BME280;19550;42.872;25.494;2022-11-20T08:49:36;95875.34;;;19.94;85.84
33185;BME280;19550;42.872;25.494;2022-11-20T08:52:03;95864.88;;;19.91;84.99
33185;BME280;19550;42.872;25.494;2022-11-20T08:54:30;95868.84;;;19.83;85.25
33185;BME280;19550;42.872;25.494;2022-11-20T08:56:59;95871.34;;;19.99;84.02
33185;BME280;19550;42.872;25.494;2022-11-20T08:59:26;95885.09;;;20.18;82.72
33185;BME280;19550;42.872;25.494;2022-11-20T09:01:52;95872.66;;;20.26;82.69
33185;BME280;19550;42.872;25.494;2022-11-20T09:04:19;95859.47;;;20.34;81.97
33185;BME280;19550;42.872;25.494;2022-11-20T09:06:46;95852.66;;;20.49;80.64
33185;BME280;19550;42.872;25.494;2022-11-20T09:09:16;95857.91;;;20.61;79.74
33185;BME280;19550;42.872;25.494;2022-11-20T09:11:43;95851.88;;;20.59;80.40
33185;BME280;19550;42.872;25.494;2022-11-20T09:14:11;95861.94;;;20.63;79.86
33185;BME280;19550;42.872;25.494;2022-11-20T09:16:38;95849.44;;;20.61;79.82
33185;BME280;19550;42.872;25.494;2022-11-20T09:19:05;95845.03;;;20.56;80.65
33185;BME280;19550;42.872;25.494;2022-11-20T09:21:32;95855.50;;;20.59;80.95
33185;BME280;19550;42.872;25.494;2022-11-20T09:23:58;95858.34;;;20.70;79.76
33185;BME280;19550;42.872;25.494;2022-11-20T09:26:25;95833.78;;;20.63;78.88
33185;BME280;19550;42.872;25.494;2022-11-20T09:28:53;95837.06;;;20.94;78.75
33185;BME280;19550;42.872;25.494;2022-11-20T09:31:24;95828.94;;;20.68;79.66
33185;BME280;19550;42.872;25.494;2022-11-20T09:33:51;95838.56;;;20.49;80.53
33185;BME280;19550;42.872;25.494;2022-11-20T09:36:18;95833.34;;;20.51;79.82
33185;BME280;19550;42.872;25.494;2022-11-20T09:38:45;95832.56;;;20.47;80.01
33185;BME280;19550;42.872;25.494;2022-11-20T09:41:28;95829.31;;;20.38;80.15
33185;BME280;19550;42.872;25.494;2022-11-20T09:44:06;95822.44;;;20.35;80.03
33185;BME280;19550;42.872;25.494;2022-11-20T09:46:40;95819.94;;;20.16;80.58
33185;BME280;19550;42.872;25.494;2022-11-20T09:49:22;95824.38;;;20.17;82.30
33185;BME280;19550;42.872;25.494;2022-11-20T09:51:57;95824.81;;;20.30;81.95
33185;BME280;19550;42.872;25.494;2022-11-20T09:54:29;95810.44;;;20.56;80.54
33185;BME280;19550;42.872;25.494;2022-11-20T09:57:00;95811.25;;;20.53;79.18
33185;BME280;19550;42.872;25.494;2022-11-20T09:59:36;95809.16;;;20.32;79.57
33185;BME280;19550;42.872;25.494;2022-11-20T10:02:16;95812.00;;;20.39;80.51
33185;BME280;19550;42.872;25.494;2022-11-20T10:04:47;95803.91;;;20.31;80.48
33185;BME280;19550;42.872;25.494;2022-11-20T10:07:22;95825.69;;;20.34;80.80
33185;BME280;19550;42.872;25.494;2022-11-20T10:09:53;95822.88;;;20.41;80.62
33185;BME280;19550;42.872;25.494;2022-11-20T10:12:27;95810.03;;;20.47;80.58
33185;BME280;19550;42.872;25.494;2022-11-20T10:15:10;95822.06;;;20.37;80.75
33185;BME280;19550;42.872;25.494;2022-11-20T10:18:01;95817.22;;;20.37;80.47
33185;BME280;19550;42.872;25.494;2022-11-20T10:20:40;95800.38;;;20.41;81.20
33185;BME280;19550;42.872;25.494;2022-11-20T10:26:02;95795.56;;;20.77;80.50
33185;BME280;19550;42.872;25.494;2022-11-20T10:28:38;95795.97;;;20.75;80.26
33185;BME280;19550;42.872;25.494;2022-11-20T10:31:09;95798.41;;;20.87;79.57
33185;BME280;19550;42.872;25.494;2022-11-20T10:33:42;95806.81;;;20.59;80.25
33185;BME280;19550;42.872;25.494;2022-11-20T10:36:17;95810.81;;;20.51;80.52
33185;BME280;19550;42.872;25.494;2022-11-20T10:38:49;95816.91;;;20.67;80.44
33185;BME280;19550;42.872;25.494;2022-11-20T10:41:22;95806.44;;;20.89;78.25
33185;BME280;19550;42.872;25.494;2022-11-20T10:44:01;95808.84;;;20.97;77.63
33185;BME280;19550;42.872;25.494;2022-11-20T10:49:05;95804.41;;;21.42;76.05
33185;BME280;19550;42.872;25.494;2022-11-20T10:51:37;95804.84;;;21.30;75.76
33185;BME280;19550;42.872;25.494;2022-11-20T10:54:15;95797.59;;;21.40;76.10
33185;BME280;19550;42.872;25.494;2022-11-20T10:56:46;95798.34;;;21.58;75.29
33185;BME280;19550;42.872;25.494;2022-11-20T10:59:35;95785.50;;;21.36;75.33
33185;BME280;19550;42.872;25.494;2022-11-20T11:02:15;95781.91;;;20.86;77.56
33185;BME280;19550;42.872;25.494;2022-11-20T11:04:46;95779.47;;;20.77;79.18
33185;BME280;19550;42.872;25.494;2022-11-20T11:07:15;95778.66;;;21.01;78.64
33185;BME280;19550;42.872;25.494;2022-11-20T11:09:47;95776.66;;;20.88;78.47
33185;BME280;19550;42.872;25.494;2022-11-20T11:12:14;95775.84;;;20.70;79.95
33185;BME280;19550;42.872;25.494;2022-11-20T11:14:43;95769.81;;;20.71;80.50
33185;BME280;19550;42.872;25.494;2022-11-20T11:17:26;95779.03;;;20.61;80.04
33185;BME280;19550;42.872;25.494;2022-11-20T11:20:03;95763.78;;;20.73;79.55
33185;BME280;19550;42.872;25.494;2022-11-20T11:22:33;95748.91;;;20.93;78.92
33185;BME280;19550;42.872;25.494;2022-11-20T11:25:00;95744.84;;;20.94;78.42
33185;BME280;19550;42.872;25.494;2022-11-20T11:27:28;95742.44;;;20.72;79.46
33185;BME280;19550;42.872;25.494;2022-11-20T11:30:13;95756.53;;;20.65;79.56
33185;BME280;19550;42.872;25.494;2022-11-20T11:32:40;95764.19;;;20.53;80.11
33185;BME280;19550;42.872;25.494;2022-11-20T11:35:22;95759.34;;;20.79;79.13
33185;BME280;19550;42.872;25.494;2022-11-20T11:37:51;95752.09;;;20.71;78.69
33185;BME280;19550;42.872;25.494;2022-11-20T11:40:21;95750.91;;;20.47;80.46
33185;BME280;19550;42.872;25.494;2022-11-20T11:42:54;95763.75;;;20.34;81.17
33185;BME280;19550;42.872;25.494;2022-11-20T11:45:22;95776.56;;;20.24;81.97
33185;BME280;19550;42.872;25.494;2022-11-20T11:47:51;95768.13;;;20.28;81.32
33185;BME280;19550;42.872;25.494;2022-11-20T11:50:22;95776.56;;;20.20;81.68
33185;BME280;19550;42.872;25.494;2022-11-20T11:53:01;95781.75;;;20.11;82.46
33185;BME280;19550;42.872;25.494;2022-11-20T11:55:33;95776.50;;;19.99;82.89
33185;BME280;19550;42.872;25.494;2022-11-20T11:58:13;95760.41;;;20.03;83.11
33185;BME280;19550;42.872;25.494;2022-11-20T12:00:48;95760.03;;;20.08;83.12
33185;BME280;19550;42.872;25.494;2022-11-20T12:03:20;95756.41;;;20.08;83.11
33185;BME280;19550;42.872;25.494;2022-11-20T12:05:57;95753.16;;;20.02;83.04
33185;BME280;19550;42.872;25.494;2022-11-20T12:08:27;95759.19;;;19.97;83.12
33185;BME280;19550;42.872;25.494;2022-11-20T12:11:04;95756.00;;;20.06;83.20
33185;BME280;19550;42.872;25.494;2022-11-20T12:13:40;95769.28;;;20.16;83.02
33185;BME280;19550;42.872;25.494;2022-11-20T12:16:13;95764.84;;;20.15;81.78
33185;BME280;19550;42.872;25.494;2022-11-20T12:18:41;95762.31;;;19.71;82.28
33185;BME280;19550;42.872;25.494;2022-11-20T12:21:28;95764.75;;;19.11;83.61
33185;BME280;19550;42.872;25.494;2022-11-20T12:24:10;95780.31;;;18.97;83.42
33185;BME280;19550;42.872;25.494;2022-11-20T12:26:51;95792.59;;;18.35;84.03
33185;BME280;19550;42.872;25.494;2022-11-20T12:29:29;95822.84;;;16.76;89.09
33185;BME280;19550;42.872;25.494;2022-11-20T12:32:17;95840.19;;;15.78;93.22
33185;BME280;19550;42.872;25.494;2022-11-20T12:35:00;95853.63;;;15.03;96.71
33185;BME280;19550;42.872;25.494;2022-11-20T12:37:39;95857.09;;;14.81;99.34
33185;BME280;19550;42.872;25.494;2022-11-20T12:40:22;95860.50;;;14.58;100.00
33185;BME280;19550;42.872;25.494;2022-11-20T12:43:00;95866.38;;;14.25;100.00
33185;BME280;19550;42.872;25.494;2022-11-20T12:45:54;95875.19;;;14.12;100.00
33185;BME280;19550;42.872;25.494;2022-11-20T12:48:36;95870.97;;;14.18;100.00
33185;BME280;19550;42.872;25.494;2022-11-20T12:51:16;95862.50;;;14.14;100.00
33185;BME280;19550;42.872;25.494;2022-11-20T12:53:58;95853.41;;;14.02;100.00
33185;BME280;19550;42.872;25.494;2022-11-20T12:56:30;95855.66;;;14.12;100.00
33185;BME280;19550;42.872;25.494;2022-11-20T12:59:09;95866.53;;;14.17;100.00
33185;BME280;19550;42.872;25.494;2022-11-20T13:01:47;95869.41;;;14.05;100.00
33185;BME280;19550;42.872;25.494;2022-11-20T13:04:26;95875.72;;;13.89;100.00